Time;durP1;ratioP1;P1;durP2;ratioP2;P2;SDS_P1;SDS_P2;PMS_P1;PMS_P2;Temp;Humidity;BMP_temperature;BMP_pressure;BME280_temperature;BME280_humidity;BME280_pressure;Samples;Min_cycle;Max_cycle;Signal;HPM_P1;HPM_P2
2022/06/09 00:01:28;;;;;;;;;;;;;;;21.66;51.43;100438.91;5020494;28;19922;-47
2022/06/09 00:04:07;;;;;;;;;;;;;;;21.64;51.80;100455.09;5020907;28;19929;-46
2022/06/09 00:06:36;;;;;;;;;;;;;;;21.63;51.50;100461.47;5025278;28;20418;-48
2022/06/09 00:09:02;;;;;;;;;;;;;;;21.62;51.83;100468.69;5023990;28;19951;-44
2022/06/09 00:11:28;;;;;;;;;;;;;;;21.65;51.64;100480.88;5017771;28;19968;-48
2022/06/09 00:13:54;;;;;;;;;;;;;;;21.66;51.69;100479.88;5017855;28;19960;-45
2022/06/09 00:16:20;;;;;;;;;;;;;;;21.69;51.89;100479.53;5025156;28;19971;-45
2022/06/09 00:18:45;;;;;;;;;;;;;;;21.71;51.93;100476.69;5021056;28;20707;-46
2022/06/09 00:21:11;;;;;;;;;;;;;;;21.71;51.73;100479.38;5016061;28;20393;-44
2022/06/09 00:23:36;;;;;;;;;;;;;;;21.71;51.72;100482.91;5026308;28;19929;-46
2022/06/09 00:26:02;;;;;;;;;;;;;;;21.71;51.86;100484.72;5029702;28;19925;-48
2022/06/09 00:28:27;;;;;;;;;;;;;;;21.72;51.72;100489.06;5023928;28;19929;-48
2022/06/09 00:30:53;;;;;;;;;;;;;;;21.72;51.45;100489.06;5019996;28;19924;-45
2022/06/09 00:33:18;;;;;;;;;;;;;;;21.71;51.52;100482.03;5024587;28;19937;-46
2022/06/09 00:35:44;;;;;;;;;;;;;;;21.71;51.44;100474.00;5022387;28;20292;-49
2022/06/09 00:38:09;;;;;;;;;;;;;;;21.70;51.56;100475.88;5026534;28;19975;-46
2022/06/09 00:40:34;;;;;;;;;;;;;;;21.70;51.66;100467.00;5027602;28;20059;-46
2022/06/09 00:43:01;;;;;;;;;;;;;;;21.70;51.40;100461.66;5026114;28;19929;-49
2022/06/09 00:45:28;;;;;;;;;;;;;;;21.67;51.46;100462.81;5023759;28;19930;-47
2022/06/09 00:47:58;;;;;;;;;;;;;;;21.66;51.87;100452.28;5027103;28;19917;-49
2022/06/09 00:50:26;;;;;;;;;;;;;;;21.65;51.86;100450.59;5022821;28;19917;-45
2022/06/09 00:52:53;;;;;;;;;;;;;;;21.66;51.62;100454.97;5021615;28;19925;-49
2022/06/09 00:55:20;;;;;;;;;;;;;;;21.65;51.78;100450.59;5027597;28;20402;-45
2022/06/09 00:58:02;;;;;;;;;;;;;;;21.64;52.01;100451.63;5022043;28;19929;-45
2022/06/09 01:00:34;;;;;;;;;;;;;;;21.59;51.66;100444.88;5021088;28;19925;-46
2022/06/09 01:03:00;;;;;;;;;;;;;;;21.54;51.84;100435.69;5025070;28;19921;-45
2022/06/09 01:05:29;;;;;;;;;;;;;;;21.46;52.25;100432.03;5020793;28;19932;-47
2022/06/09 01:07:58;;;;;;;;;;;;;;;21.37;52.55;100434.88;5025566;28;19956;-46
2022/06/09 01:10:23;;;;;;;;;;;;;;;21.29;52.71;100439.19;5029060;28;19932;-45
2022/06/09 01:12:49;;;;;;;;;;;;;;;21.26;52.64;100444.06;5028644;28;19924;-49
2022/06/09 01:15:16;;;;;;;;;;;;;;;21.27;52.96;100446.56;5027417;28;19928;-47
2022/06/09 01:17:55;;;;;;;;;;;;;;;21.30;53.01;100448.91;5019628;28;19917;-45
2022/06/09 01:20:30;;;;;;;;;;;;;;;21.34;53.03;100478.84;5022019;28;19996;-46
2022/06/09 01:23:14;;;;;;;;;;;;;;;21.35;52.93;100452.91;5023128;28;19918;-49
2022/06/09 01:25:49;;;;;;;;;;;;;;;21.35;52.79;100447.56;5032726;28;19929;-47
2022/06/09 01:28:42;;;;;;;;;;;;;;;21.34;53.21;100427.16;5034166;28;20399;-45
2022/06/09 01:31:08;;;;;;;;;;;;;;;21.32;53.58;100427.34;5031975;28;19928;-45
2022/06/09 01:33:40;;;;;;;;;;;;;;;21.29;53.30;100427.66;5030377;28;20016;-47
2022/06/09 01:36:14;;;;;;;;;;;;;;;21.28;53.58;100423.31;5023404;28;19928;-47
2022/06/09 01:38:44;;;;;;;;;;;;;;;21.18;53.69;100407.44;5022950;28;20357;-47
2022/06/09 01:41:09;;;;;;;;;;;;;;;21.09;53.71;100405.75;5023201;28;20126;-47
2022/06/09 01:43:34;;;;;;;;;;;;;;;21.01;54.03;100399.38;5018036;28;19932;-48
2022/06/09 01:46:06;;;;;;;;;;;;;;;20.97;54.20;100402.56;5020221;28;19921;-47
2022/06/09 01:48:32;;;;;;;;;;;;;;;20.97;54.38;100402.56;5019230;28;19924;-45
2022/06/09 01:51:00;;;;;;;;;;;;;;;20.99;54.94;100419.28;5023341;28;20309;-47
2022/06/09 01:53:40;;;;;;;;;;;;;;;21.01;54.85;100436.81;5020665;28;19912;-47
2022/06/09 01:56:11;;;;;;;;;;;;;;;21.05;54.95;100429.31;5017547;28;19923;-46
2022/06/09 01:58:43;;;;;;;;;;;;;;;21.08;55.19;100433.50;5022480;28;20008;-48
2022/06/09 02:01:10;;;;;;;;;;;;;;;21.08;55.69;100431.66;5023648;28;19921;-45
2022/06/09 02:03:39;;;;;;;;;;;;;;;21.08;55.70;100430.84;5023382;28;19913;-48
2022/06/09 02:06:05;;;;;;;;;;;;;;;21.08;55.94;100425.47;5019816;28;20385;-45
2022/06/09 02:08:32;;;;;;;;;;;;;;;21.08;56.15;100425.47;5022498;28;20012;-45
2022/06/09 02:11:04;;;;;;;;;;;;;;;21.07;55.99;100424.63;5027119;28;19914;-45
2022/06/09 02:13:33;;;;;;;;;;;;;;;21.06;56.33;100424.81;5020332;28;20464;-45
2022/06/09 02:16:00;;;;;;;;;;;;;;;21.04;56.26;100416.94;5025711;28;19975;-45
2022/06/09 02:18:27;;;;;;;;;;;;;;;21.05;56.21;100417.78;5016938;28;19918;-47
2022/06/09 02:21:01;;;;;;;;;;;;;;;21.04;56.51;100408.09;5015717;28;19918;-46
2022/06/09 02:23:27;;;;;;;;;;;;;;;21.04;56.20;100419.59;5022528;28;19917;-47
2022/06/09 02:25:52;;;;;;;;;;;;;;;21.04;56.27;100424.94;5019150;28;19921;-48
2022/06/09 02:28:18;;;;;;;;;;;;;;;21.06;56.17;100432.84;5019066;28;19917;-45
2022/06/09 02:30:43;;;;;;;;;;;;;;;21.07;56.38;100429.16;5023529;28;20023;-50
2022/06/09 02:33:09;;;;;;;;;;;;;;;21.06;56.26;100427.47;5026602;28;20365;-45
2022/06/09 02:35:34;;;;;;;;;;;;;;;21.04;56.34;100432.97;5019831;28;19917;-46
2022/06/09 02:38:00;;;;;;;;;;;;;;;21.01;56.57;100428.81;5022654;28;19924;-48
2022/06/09 02:40:26;;;;;;;;;;;;;;;21.00;56.75;100437.81;5026020;28;20396;-46
2022/06/09 02:42:51;;;;;;;;;;;;;;;20.98;56.98;100437.16;5021035;28;19918;-47
2022/06/09 02:45:17;;;;;;;;;;;;;;;20.97;56.67;100440.81;5011062;28;19933;-47
2022/06/09 02:47:42;;;;;;;;;;;;;;;20.96;57.00;100447.19;5024540;28;19948;-46
2022/06/09 02:50:08;;;;;;;;;;;;;;;20.97;56.97;100454.19;5016548;28;19929;-47
2022/06/09 02:52:33;;;;;;;;;;;;;;;20.97;57.03;100462.22;5023258;28;19971;-49
2022/06/09 02:54:59;;;;;;;;;;;;;;;20.97;56.78;100458.72;5018659;28;19917;-48
2022/06/09 02:57:24;;;;;;;;;;;;;;;20.96;57.17;100465.91;5023271;28;20425;-49
2022/06/09 02:59:51;;;;;;;;;;;;;;;20.95;57.12;100479.44;5017878;28;19932;-48
2022/06/09 03:02:16;;;;;;;;;;;;;;;20.93;57.03;100482.28;5019891;28;19926;-47
2022/06/09 03:04:42;;;;;;;;;;;;;;;20.92;57.16;100480.63;5017837;28;19979;-45
2022/06/09 03:07:07;;;;;;;;;;;;;;;20.89;57.29;100483.59;5024088;28;20460;-47
2022/06/09 03:09:33;;;;;;;;;;;;;;;20.90;57.34;100484.44;5019893;28;19924;-50
2022/06/09 03:11:58;;;;;;;;;;;;;;;20.89;57.12;100490.78;5025208;28;19924;-45
2022/06/09 03:14:23;;;;;;;;;;;;;;;20.85;57.48;100491.13;5025294;28;19930;-47
2022/06/09 03:16:50;;;;;;;;;;;;;;;20.82;57.29;100488.78;5019797;28;19922;-45
2022/06/09 03:19:16;;;;;;;;;;;;;;;20.81;57.05;100483.56;5022165;28;19925;-46
2022/06/09 03:21:41;;;;;;;;;;;;;;;20.78;56.92;100484.75;5022974;28;19924;-45
2022/06/09 03:24:06;;;;;;;;;;;;;;;20.77;56.94;100492.94;5028989;28;19922;-46
2022/06/09 03:26:32;;;;;;;;;;;;;;;20.75;56.92;100490.41;5031833;28;19925;-47
2022/06/09 03:28:57;;;;;;;;;;;;;;;20.74;57.30;100495.88;5024782;28;20301;-48
2022/06/09 03:31:22;;;;;;;;;;;;;;;20.73;57.18;100496.88;5022023;28;19937;-46
2022/06/09 03:33:49;;;;;;;;;;;;;;;20.73;57.09;100496.88;5022181;28;19921;-45
2022/06/09 03:36:15;;;;;;;;;;;;;;;20.70;57.26;100498.06;5019276;28;19925;-47
2022/06/09 03:38:40;;;;;;;;;;;;;;;20.69;57.22;100494.53;5024827;28;19917;-47
2022/06/09 03:41:07;;;;;;;;;;;;;;;20.68;57.33;100486.69;5025531;28;20028;-47
2022/06/09 03:43:33;;;;;;;;;;;;;;;20.67;57.12;100488.50;5024798;28;20289;-48
2022/06/09 03:45:58;;;;;;;;;;;;;;;20.68;57.01;100484.84;5023492;28;19968;-47
2022/06/09 03:48:24;;;;;;;;;;;;;;;20.66;57.01;100489.50;5027195;28;19928;-46
2022/06/09 03:50:49;;;;;;;;;;;;;;;20.63;57.40;100492.53;5023812;28;19925;-47
2022/06/09 03:53:14;;;;;;;;;;;;;;;20.62;57.47;100490.00;5024821;28;19928;-45
2022/06/09 03:55:40;;;;;;;;;;;;;;;20.62;57.46;100488.16;5028586;28;19983;-45
2022/06/09 03:58:05;;;;;;;;;;;;;;;20.64;57.52;100491.53;5018228;28;19925;-47
2022/06/09 04:00:31;;;;;;;;;;;;;;;20.68;57.58;100497.38;5015961;28;19921;-46
2022/06/09 04:02:56;;;;;;;;;;;;;;;20.73;57.38;100500.38;5017544;28;19964;-44
2022/06/09 04:05:22;;;;;;;;;;;;;;;20.78;57.43;100489.25;5026442;28;20372;-45
2022/06/09 04:07:47;;;;;;;;;;;;;;;20.80;57.47;100498.78;5023474;28;19921;-46
2022/06/09 04:10:23;;;;;;;;;;;;;;;20.83;57.78;100503.81;5027617;28;20380;-46
2022/06/09 04:12:50;;;;;;;;;;;;;;;20.86;57.70;100500.81;5026853;28;20013;-46
2022/06/09 04:15:16;;;;;;;;;;;;;;;20.89;57.89;100510.34;5023726;28;20459;-45
2022/06/09 04:17:42;;;;;;;;;;;;;;;20.91;57.83;100505.69;5021954;28;19925;-45
2022/06/09 04:20:07;;;;;;;;;;;;;;;20.92;57.71;100512.72;5025728;28;19921;-48
2022/06/09 04:22:33;;;;;;;;;;;;;;;20.94;57.93;100504.50;5014467;28;19917;-44
2022/06/09 04:24:59;;;;;;;;;;;;;;;20.96;57.63;100511.34;5019474;28;19980;-47
2022/06/09 04:27:24;;;;;;;;;;;;;;;20.97;57.70;100515.72;5023300;28;19925;-48
2022/06/09 04:29:50;;;;;;;;;;;;;;;20.99;57.94;100528.94;5017116;28;19979;-47
2022/06/09 04:32:15;;;;;;;;;;;;;;;20.99;57.74;100524.41;5019948;28;20340;-48
2022/06/09 04:34:42;;;;;;;;;;;;;;;20.99;57.86;100529.75;5029066;28;20397;-47
2022/06/09 04:37:07;;;;;;;;;;;;;;;20.99;57.88;100529.75;5023146;28;19927;-48
2022/06/09 04:39:33;;;;;;;;;;;;;;;20.99;57.94;100537.78;5026945;28;19920;-48
2022/06/09 04:41:58;;;;;;;;;;;;;;;20.99;57.84;100536.97;5024547;28;19921;-45
2022/06/09 04:44:24;;;;;;;;;;;;;;;20.98;58.08;100538.78;5025551;28;19972;-46
2022/06/09 04:46:49;;;;;;;;;;;;;;;20.98;58.09;100544.13;5022590;28;19965;-46
2022/06/09 04:49:14;;;;;;;;;;;;;;;20.98;57.98;100545.97;5021473;28;19948;-45
2022/06/09 04:51:40;;;;;;;;;;;;;;;20.97;58.26;100547.81;5023159;28;20012;-48
2022/06/09 04:54:05;;;;;;;;;;;;;;;20.98;58.25;100554.84;5023726;28;19943;-46
2022/06/09 04:56:30;;;;;;;;;;;;;;;20.98;58.26;100549.47;5023820;28;20455;-45
2022/06/09 04:58:56;;;;;;;;;;;;;;;20.97;58.18;100552.34;5025289;28;19952;-45
2022/06/09 05:01:22;;;;;;;;;;;;;;;20.98;58.46;100557.50;5024737;28;19939;-46
2022/06/09 05:03:49;;;;;;;;;;;;;;;20.99;58.18;100553.00;5031036;28;19936;-45
2022/06/09 05:06:16;;;;;;;;;;;;;;;21.02;58.10;100563.41;5022983;28;20381;-49
2022/06/09 05:08:41;;;;;;;;;;;;;;;21.01;58.16;100559.03;5024937;28;20020;-46
2022/06/09 05:11:07;;;;;;;;;;;;;;;21.00;57.86;100558.19;5022125;28;20004;-44
2022/06/09 05:13:32;;;;;;;;;;;;;;;21.00;58.30;100563.53;5023319;28;19917;-45
2022/06/09 05:15:57;;;;;;;;;;;;;;;21.01;58.02;100561.72;5024441;28;20465;-45
2022/06/09 05:18:26;;;;;;;;;;;;;;;21.02;58.27;100571.41;5025300;28;19917;-48
2022/06/09 05:20:51;;;;;;;;;;;;;;;21.01;58.19;100567.06;5028909;28;19983;-48
2022/06/09 05:23:18;;;;;;;;;;;;;;;21.01;58.46;100575.91;5033182;28;19924;-45
2022/06/09 05:25:44;;;;;;;;;;;;;;;20.98;58.21;100576.22;5028878;28;19917;-47
2022/06/09 05:28:09;;;;;;;;;;;;;;;20.98;58.62;100578.06;5029613;28;19967;-46
2022/06/09 05:30:35;;;;;;;;;;;;;;;20.98;58.31;100575.41;5029870;28;19942;-46
2022/06/09 05:33:01;;;;;;;;;;;;;;;20.99;58.51;100582.44;5028172;28;19917;-45
2022/06/09 05:35:27;;;;;;;;;;;;;;;21.02;58.73;100582.94;5025985;28;19932;-45
2022/06/09 05:46:04;;;;;;;;;;;;;;;21.19;58.15;100591.03;5022633;28;20048;-50
2022/06/09 05:48:30;;;;;;;;;;;;;;;21.23;58.07;100589.72;5027547;28;19919;-45
2022/06/09 05:50:55;;;;;;;;;;;;;;;21.27;57.95;100592.88;5022402;28;20008;-48
2022/06/09 05:53:21;;;;;;;;;;;;;;;21.29;58.16;100594.41;5020108;28;19917;-45
2022/06/09 05:55:46;;;;;;;;;;;;;;;21.29;58.38;100601.59;5027096;28;19920;-46
2022/06/09 05:58:11;;;;;;;;;;;;;;;21.25;58.08;100587.69;5025336;28;19975;-48
2022/06/09 06:00:38;;;;;;;;;;;;;;;21.28;58.11;100590.03;5031610;28;19921;-48
2022/06/09 06:03:03;;;;;;;;;;;;;;;21.29;58.00;100588.22;5031105;28;19921;-46
2022/06/09 06:08:12;;;;;;;;;;;;;;;21.35;57.68;100592.91;5024479;28;20008;-48
2022/06/09 06:10:38;;;;;;;;;;;;;;;21.39;57.94;100593.44;5029278;28;20016;-45
2022/06/09 06:13:03;;;;;;;;;;;;;;;21.35;57.65;100589.41;5027533;28;19952;-45
2022/06/09 06:15:29;;;;;;;;;;;;;;;21.27;57.29;100591.03;5029236;28;19971;-47
2022/06/09 06:17:55;;;;;;;;;;;;;;;21.27;57.61;100596.38;5023010;28;20016;-46
2022/06/09 06:20:20;;;;;;;;;;;;;;;21.31;57.46;100597.75;5027557;28;20016;-48
2022/06/09 06:22:46;;;;;;;;;;;;;;;21.38;57.13;100597.13;5032140;28;19939;-46
2022/06/09 06:25:11;;;;;;;;;;;;;;;21.42;57.22;100604.66;5026343;28;20379;-48
2022/06/09 06:27:36;;;;;;;;;;;;;;;21.46;56.83;100607.81;5033197;28;19993;-47
2022/06/09 06:30:02;;;;;;;;;;;;;;;21.47;57.02;100598.78;5028448;28;20055;-49
2022/06/09 06:32:27;;;;;;;;;;;;;;;21.46;57.02;100608.69;5029554;28;19921;-45
2022/06/09 06:34:52;;;;;;;;;;;;;;;21.45;57.02;100606.16;5032183;28;19917;-45
2022/06/09 06:37:18;;;;;;;;;;;;;;;21.45;57.18;100608.81;5029483;28;19925;-49
2022/06/09 06:39:43;;;;;;;;;;;;;;;21.48;57.09;100613.84;5032019;28;19921;-49
2022/06/09 06:42:08;;;;;;;;;;;;;;;21.51;56.86;100618.88;5026717;28;19971;-48
2022/06/09 06:44:34;;;;;;;;;;;;;;;21.56;57.00;100611.19;5027558;28;19925;-49
2022/06/09 06:46:59;;;;;;;;;;;;;;;21.62;56.72;100618.59;5022057;28;19922;-45
2022/06/09 06:49:24;;;;;;;;;;;;;;;21.66;56.67;100618.28;5023953;28;19921;-46
2022/06/09 06:51:50;;;;;;;;;;;;;;;21.70;56.64;100622.31;5029215;28;19932;-46
2022/06/09 06:54:15;;;;;;;;;;;;;;;21.70;56.40;100614.28;5030495;28;20075;-45
2022/06/09 06:56:40;;;;;;;;;;;;;;;21.68;56.67;100625.13;5032818;28;19921;-46
2022/06/09 06:59:05;;;;;;;;;;;;;;;21.67;56.67;100630.66;5025274;28;19917;-45
2022/06/09 07:01:31;;;;;;;;;;;;;;;21.61;56.47;100630.31;5028346;28;19936;-45
2022/06/09 07:03:57;;;;;;;;;;;;;;;21.54;56.84;100645.34;5028536;28;19921;-48
2022/06/09 07:06:22;;;;;;;;;;;;;;;21.46;56.95;100648.81;5023988;28;19921;-45
2022/06/09 07:08:48;;;;;;;;;;;;;;;21.42;56.79;100652.81;5023365;28;19940;-46
2022/06/09 07:11:13;;;;;;;;;;;;;;;21.36;56.98;100652.63;5025138;28;20373;-45
2022/06/09 07:13:39;;;;;;;;;;;;;;;21.29;57.48;100669.31;5033732;28;19917;-45
2022/06/09 07:16:06;;;;;;;;;;;;;;;21.24;57.21;100663.63;5021153;28;19917;-46
2022/06/09 07:18:32;;;;;;;;;;;;;;;21.19;57.11;100670.44;5029872;28;19921;-45
2022/06/09 07:20:58;;;;;;;;;;;;;;;21.13;57.09;100670.09;5033470;28;19928;-46
2022/06/09 07:23:26;;;;;;;;;;;;;;;21.09;57.25;100662.56;5025734;28;20368;-45
2022/06/09 07:25:51;;;;;;;;;;;;;;;21.04;57.40;100664.88;5033795;28;20015;-45
2022/06/09 07:28:17;;;;;;;;;;;;;;;21.07;57.40;100669.91;5030769;28;20028;-45
2022/06/09 07:30:42;;;;;;;;;;;;;;;21.04;57.26;100662.19;5029586;28;19921;-45
2022/06/09 07:33:07;;;;;;;;;;;;;;;21.03;57.69;100664.00;5024072;28;19927;-47
2022/06/09 07:35:34;;;;;;;;;;;;;;;21.04;57.64;100675.56;5031669;28;19916;-45
2022/06/09 07:37:59;;;;;;;;;;;;;;;21.06;57.04;100678.91;5026297;28;19917;-45
2022/06/09 07:40:24;;;;;;;;;;;;;;;21.07;57.34;100676.06;5034833;28;19924;-47
2022/06/09 07:42:50;;;;;;;;;;;;;;;21.14;56.90;100678.94;5026278;28;19925;-46
2022/06/09 07:45:16;;;;;;;;;;;;;;;21.21;56.55;100681.81;5029009;28;19921;-45
2022/06/09 07:47:41;;;;;;;;;;;;;;;21.23;56.26;100680.69;5024413;28;20004;-46
2022/06/09 07:50:07;;;;;;;;;;;;;;;21.25;55.39;100681.34;5028414;28;19937;-45
2022/06/09 07:52:32;;;;;;;;;;;;;;;21.23;55.12;100688.72;5037193;28;19926;-45
2022/06/09 07:54:58;;;;;;;;;;;;;;;21.23;55.19;100687.84;5032595;28;19928;-49
2022/06/09 07:57:23;;;;;;;;;;;;;;;21.28;54.82;100694.41;5028298;28;20007;-45
2022/06/09 07:59:48;;;;;;;;;;;;;;;21.35;54.98;100694.59;5038051;28;20007;-47
2022/06/09 08:02:14;;;;;;;;;;;;;;;21.45;54.84;100695.31;5029223;28;19922;-45
2022/06/09 08:04:39;;;;;;;;;;;;;;;21.55;54.48;100699.69;5031155;28;19928;-46
2022/06/09 08:07:05;;;;;;;;;;;;;;;21.67;54.73;100703.78;5019701;28;19921;-45
2022/06/09 08:09:30;;;;;;;;;;;;;;;21.78;54.48;100700.78;5027049;28;19956;-47
2022/06/09 08:11:56;;;;;;;;;;;;;;;21.90;53.63;100709.38;5021629;28;20011;-45
2022/06/09 08:14:21;;;;;;;;;;;;;;;21.95;53.57;100710.72;5035705;28;19921;-45
2022/06/09 08:16:46;;;;;;;;;;;;;;;22.02;53.35;100711.72;5027772;28;19914;-48
2022/06/09 08:19:12;;;;;;;;;;;;;;;22.11;53.22;100716.13;5025885;28;20336;-45
2022/06/09 08:21:37;;;;;;;;;;;;;;;22.20;53.01;100701.72;5034780;28;19925;-45
2022/06/09 08:24:03;;;;;;;;;;;;;;;22.31;52.73;100713.13;5023588;28;19929;-49
2022/06/09 08:26:28;;;;;;;;;;;;;;;22.37;52.69;100709.75;5025996;28;19932;-46
2022/06/09 08:28:54;;;;;;;;;;;;;;;22.44;52.39;100705.47;5026494;28;19918;-46
2022/06/09 08:31:20;;;;;;;;;;;;;;;22.52;52.44;100712.66;5020837;28;19928;-45
2022/06/09 08:33:45;;;;;;;;;;;;;;;22.57;52.20;100715.66;5022360;28;19917;-48
2022/06/09 08:36:11;;;;;;;;;;;;;;;22.63;52.21;100720.34;5027489;28;19929;-47
2022/06/09 08:38:36;;;;;;;;;;;;;;;22.68;52.21;100718.00;5025010;28;20001;-46
2022/06/09 08:41:08;;;;;;;;;;;;;;;22.69;51.89;100729.56;5027287;28;20079;-47
2022/06/09 08:43:36;;;;;;;;;;;;;;;22.72;51.94;100723.88;5030726;28;19924;-45
2022/06/09 08:46:07;;;;;;;;;;;;;;;22.73;51.51;100725.56;5030981;28;19928;-48
2022/06/09 08:48:37;;;;;;;;;;;;;;;22.74;51.79;100721.88;5031458;28;19917;-45
2022/06/09 08:51:06;;;;;;;;;;;;;;;22.77;51.75;100726.88;5031890;28;19917;-46
2022/06/09 08:53:37;;;;;;;;;;;;;;;22.83;51.69;100722.69;5029811;28;19924;-46
2022/06/09 08:56:12;;;;;;;;;;;;;;;22.90;51.90;100725.53;5033127;28;20007;-48
2022/06/09 08:58:46;;;;;;;;;;;;;;;22.96;51.60;100728.38;5029609;28;20015;-47
2022/06/09 09:01:17;;;;;;;;;;;;;;;22.98;51.52;100733.56;5018508;28;21055;-47
2022/06/09 09:03:47;;;;;;;;;;;;;;;22.98;51.39;100736.22;5030943;28;20063;-46
2022/06/09 09:06:15;;;;;;;;;;;;;;;22.93;51.04;100741.25;5032897;28;19921;-47
2022/06/09 09:08:40;;;;;;;;;;;;;;;22.92;51.07;100736.91;5024468;28;19921;-47
2022/06/09 09:11:12;;;;;;;;;;;;;;;22.93;50.91;100749.31;5022640;28;20286;-47
2022/06/09 09:13:50;;;;;;;;;;;;;;;22.97;50.76;100747.97;5022468;28;19913;-46
2022/06/09 09:16:20;;;;;;;;;;;;;;;23.04;50.42;100754.34;5021784;28;19924;-46
2022/06/09 09:18:53;;;;;;;;;;;;;;;23.09;50.38;100743.91;5026970;28;20548;-47
2022/06/09 09:21:28;;;;;;;;;;;;;;;23.13;49.80;100753.31;5021740;28;19921;-47
2022/06/09 09:24:06;;;;;;;;;;;;;;;23.14;49.26;100749.63;5029067;28;19925;-46
2022/06/09 09:26:49;;;;;;;;;;;;;;;23.23;49.25;100763.03;5026922;28;20404;-47
2022/06/09 09:29:33;;;;;;;;;;;;;;;23.33;48.66;100750.28;5022976;28;19940;-47
2022/06/09 09:32:03;;;;;;;;;;;;;;;23.40;48.54;100758.47;5025995;28;20510;-48
2022/06/09 09:34:32;;;;;;;;;;;;;;;23.41;48.82;100766.34;5022624;28;20012;-49
2022/06/09 09:37:00;;;;;;;;;;;;;;;23.39;47.99;100763.00;5026610;28;20019;-46
2022/06/09 09:39:47;;;;;;;;;;;;;;;23.39;48.26;100754.94;5030622;28;19929;-46
2022/06/09 09:42:16;;;;;;;;;;;;;;;23.39;48.07;100767.53;5022239;28;19917;-47
2022/06/09 09:44:57;;;;;;;;;;;;;;;23.40;48.00;100759.31;5033086;28;19928;-47
2022/06/09 09:47:27;;;;;;;;;;;;;;;23.45;47.50;100764.16;5031313;28;19935;-48
2022/06/09 09:49:55;;;;;;;;;;;;;;;23.51;47.55;100762.63;5032821;28;19925;-47
2022/06/09 09:52:42;;;;;;;;;;;;;;;23.58;47.20;100760.91;5025210;28;19921;-50
2022/06/09 09:55:28;;;;;;;;;;;;;;;23.66;47.22;100768.97;5018978;28;19917;-47
2022/06/09 09:58:07;;;;;;;;;;;;;;;23.71;47.11;100760.38;5024521;28;19917;-48
2022/06/09 10:00:34;;;;;;;;;;;;;;;23.76;47.08;100768.72;5035908;28;20003;-48
2022/06/09 10:08:43;;;;;;;;;;;;;;;23.67;45.93;100780.53;5029646;28;19971;-46
2022/06/09 10:14:20;;;;;;;;;;;;;;;23.57;46.39;100791.47;5024582;28;20292;-46
2022/06/09 10:16:50;;;;;;;;;;;;;;;23.49;46.59;100794.19;5026645;28;20277;-47
2022/06/09 10:19:18;;;;;;;;;;;;;;;23.45;46.33;100799.06;5021889;28;19971;-46
2022/06/09 10:21:55;;;;;;;;;;;;;;;23.47;46.65;100793.53;5019090;28;20278;-46
2022/06/09 10:24:24;;;;;;;;;;;;;;;23.54;46.27;100797.19;5023036;28;19933;-46
2022/06/09 10:26:54;;;;;;;;;;;;;;;23.57;46.27;100803.06;5026109;28;19918;-48
2022/06/09 10:29:38;;;;;;;;;;;;;;;23.56;45.86;100813.97;5028424;28;19925;-47
2022/06/09 10:32:06;;;;;;;;;;;;;;;23.63;46.07;100804.22;5024673;28;19925;-49
2022/06/09 10:34:50;;;;;;;;;;;;;;;23.66;45.61;100801.19;5028259;28;20018;-46
2022/06/09 10:37:28;;;;;;;;;;;;;;;23.70;45.76;100810.56;5025895;28;19936;-46
2022/06/09 10:40:04;;;;;;;;;;;;;;;23.73;45.70;100812.91;5027879;28;20027;-46
2022/06/09 10:42:39;;;;;;;;;;;;;;;23.75;45.61;100818.94;5025904;28;19920;-47
2022/06/09 10:45:20;;;;;;;;;;;;;;;23.77;45.73;100820.63;5024777;28;19921;-48
2022/06/09 10:56:26;;;;;;;;;;;;;;;23.77;45.90;100826.00;5017415;28;19926;-47
2022/06/09 10:58:59;;;;;;;;;;;;;;;23.69;45.63;100835.75;5028967;28;19921;-46
2022/06/09 11:01:28;;;;;;;;;;;;;;;23.68;45.81;100839.44;5025014;28;19971;-47
2022/06/09 11:03:54;;;;;;;;;;;;;;;23.71;45.73;100843.66;5026707;28;19924;-48
2022/06/09 11:06:22;;;;;;;;;;;;;;;23.71;45.30;100852.53;5026495;28;19925;-46
2022/06/09 11:08:57;;;;;;;;;;;;;;;23.68;45.44;100841.28;5027752;28;20365;-47
2022/06/09 11:11:22;;;;;;;;;;;;;;;23.66;45.58;100838.78;5021944;28;19917;-47
2022/06/09 11:13:47;;;;;;;;;;;;;;;23.68;45.58;100847.50;5026280;28;19924;-48
2022/06/09 11:16:24;;;;;;;;;;;;;;;23.70;45.58;100840.09;5025573;28;20392;-46
2022/06/09 11:19:08;;;;;;;;;;;;;;;23.79;45.37;100856.22;5031462;28;19921;-48
2022/06/09 11:21:36;;;;;;;;;;;;;;;23.84;45.31;100851.13;5028925;28;19921;-47
2022/06/09 11:24:19;;;;;;;;;;;;;;;23.78;44.97;100852.66;5022918;28;19975;-46
2022/06/09 11:26:50;;;;;;;;;;;;;;;23.78;45.31;100857.22;5023436;28;20004;-46
2022/06/09 11:29:37;;;;;;;;;;;;;;;23.81;45.52;100851.50;5025947;28;19921;-48
2022/06/09 11:32:06;;;;;;;;;;;;;;;23.83;45.55;100849.47;5019190;28;20015;-49
2022/06/09 11:34:31;;;;;;;;;;;;;;;23.84;45.71;100852.00;5021316;28;20047;-47
2022/06/09 11:37:07;;;;;;;;;;;;;;;23.84;45.72;100862.75;5025060;28;20019;-48
2022/06/09 11:39:54;;;;;;;;;;;;;;;23.83;45.74;100849.47;5015592;28;19939;-48
2022/06/09 11:42:22;;;;;;;;;;;;;;;23.81;45.73;100857.72;5019947;28;20350;-47
2022/06/09 11:44:51;;;;;;;;;;;;;;;23.81;45.59;100863.06;5021870;28;19928;-48
2022/06/09 11:47:18;;;;;;;;;;;;;;;23.78;45.10;100867.97;5021671;28;19921;-48
2022/06/09 11:49:45;;;;;;;;;;;;;;;23.73;45.66;100861.25;5025735;28;19929;-49
2022/06/09 11:52:20;;;;;;;;;;;;;;;23.75;45.15;100861.94;5026339;28;20376;-48
2022/06/09 11:54:48;;;;;;;;;;;;;;;23.79;45.32;100853.53;5023284;28;20047;-46
2022/06/09 11:57:16;;;;;;;;;;;;;;;23.78;45.19;100878.72;5026726;28;20410;-45
2022/06/09 11:59:51;;;;;;;;;;;;;;;23.75;45.27;100867.28;5018829;28;19921;-45
2022/06/09 12:02:30;;;;;;;;;;;;;;;23.77;45.35;100860.91;5028228;28;20301;-46
2022/06/09 12:05:28;;;;;;;;;;;;;;;23.83;45.41;100885.25;5018767;28;19925;-49
2022/06/09 12:08:04;;;;;;;;;;;;;;;23.85;45.30;100866.25;4999468;28;19917;-46
2022/06/09 12:10:47;;;;;;;;;;;;;;;23.88;45.38;100863.22;5019557;28;19917;-45
2022/06/09 12:13:24;;;;;;;;;;;;;;;23.84;45.44;100888.75;5021134;28;20573;-45
2022/06/09 12:15:55;;;;;;;;;;;;;;;23.84;45.50;100872.63;5027431;28;19924;-46
2022/06/09 12:18:40;;;;;;;;;;;;;;;23.88;45.54;100877.50;5021504;28;20404;-46
2022/06/09 12:21:09;;;;;;;;;;;;;;;23.94;45.55;100873.28;5022388;28;19917;-45
2022/06/09 12:23:39;;;;;;;;;;;;;;;24.02;45.41;100881.34;5023730;28;20007;-48
2022/06/09 12:26:10;;;;;;;;;;;;;;;24.14;45.51;100899.75;5020520;28;19929;-46
2022/06/09 12:28:57;;;;;;;;;;;;;;;24.15;45.31;100896.06;5028249;28;19944;-46
2022/06/09 12:31:24;;;;;;;;;;;;;;;24.08;45.36;100898.59;5023026;28;19963;-49
2022/06/09 12:34:09;;;;;;;;;;;;;;;24.05;45.68;100902.50;5024707;28;20018;-48
2022/06/09 12:36:38;;;;;;;;;;;;;;;24.11;45.47;100910.88;5024510;28;20360;-46
2022/06/09 12:39:20;;;;;;;;;;;;;;;24.13;45.65;100908.84;5022558;28;19925;-48
2022/06/09 12:41:55;;;;;;;;;;;;;;;24.18;45.64;100914.53;5025864;28;19932;-48
2022/06/09 12:44:23;;;;;;;;;;;;;;;24.13;45.52;100920.44;5022594;28;20471;-45
2022/06/09 12:46:57;;;;;;;;;;;;;;;24.07;45.77;100915.75;5020665;28;19952;-46
2022/06/09 12:49:34;;;;;;;;;;;;;;;23.93;46.26;100930.72;5023331;28;20393;-45
2022/06/09 12:51:59;;;;;;;;;;;;;;;23.77;46.53;100926.22;5023042;28;20436;-47
2022/06/09 12:54:35;;;;;;;;;;;;;;;23.64;46.68;100948.25;5025974;28;20037;-46
2022/06/09 12:57:05;;;;;;;;;;;;;;;23.58;46.67;100935.50;5023569;28;19918;-49
2022/06/09 12:59:32;;;;;;;;;;;;;;;23.54;46.88;100924.25;5026336;28;19925;-45
2022/06/09 13:02:01;;;;;;;;;;;;;;;23.60;46.93;100942.34;5023036;28;20935;-47
2022/06/09 13:04:28;;;;;;;;;;;;;;;23.61;46.76;100937.84;5028002;28;19925;-46
2022/06/09 13:06:56;;;;;;;;;;;;;;;23.64;46.49;100950.94;5021613;28;20227;-46
2022/06/09 13:09:21;;;;;;;;;;;;;;;23.57;46.71;100974.94;5014606;28;19953;-45
2022/06/09 13:14:34;;;;;;;;;;;;;;;23.63;46.51;100948.41;5020553;28;19975;-47